Airfield :
LOGIN :

Register | Disclaimer

   EN    FR    IT 

 










Legend :    VFR   Marginal VFR   IFR   Intensive IFR   Very Intensive IFR
Visi :
Ceiling :
>= 8 km
>= 3000ft
5 to 8 km
1000 to 3000 ft
1500m to 5 km
500 to 1000 ft
800 to 1500m
200 to 500 ft
< 800m
< 200 ft
Symbols :   Thunderstorms  Fog  Heavy snow  Heavy precipitations  Wind > 20 kt
SIGMETs :     Misc.  Thunderstorms  Icing  Turbulence  Mountain Waves  Volcanic Ashes






- Airport Elevation : 106 ft
- IATA code : XDA


LFBY - Dax Seyresse

CURRENT METAR :
  • 080230Z AUTO 27004KT 220V310 9999 // FEW034/// ///CB 08/06 Q1006

EXPIRED METARs :
  • 080200Z AUTO 27006KT 240V310 9999 // FEW040/// ///CB 08/06 Q1006
  • 080130Z AUTO 28007KT 230V320 9999 // FEW028/// SCT043/// ///TCU 09/07 Q1006
  • 080100Z AUTO 25006KT 8000 // FEW027/// SCT037/// BKN044/// ///CB 09/08 Q1006
  • 080030Z AUTO 23004KT 200V260 7000 // ////// 09/08 Q1006
  • 080000Z AUTO 21004KT 7000 // FEW027/// SCT044/// ///CB 09/08 Q1006

Expired Forecast.



MET'MAP, your aeronautical weather chart ! - Copyright ORBIFLY December 2007 - Disclaimer

ORBIFLY MET'MAP TEAM :

Programming & Development : Alexandra Zaïnal
Concept & original design : Baudouin d'Aumeries
Assistance for programming : Marc-Olivier Méhu
Technical & hardware support : Manuel Goepfert

Contact : metmap@orbifly.com




SOURCES & CREDITS :

   NOAA